This is the latest recevied weather packets stored in our database for station/object HA9OZD-18. If no packets are shown the sender has not sent any weather packets the latest 10 day(s).
| Time | Temp. | Humidity | Pressure | Rain* | Wind** | Luminosity | Snow |
|---|---|---|---|---|---|---|---|
| 1787896594 | 12.78° C | 80% | 1020 hPa | - | - | - | - |
| 1787895931 | 12.78° C | 80% | 1020 hPa | - | - | - | - |
| 1787892330 | 11.67° C | 84% | 1019.9 hPa | - | - | - | - |
| 1787889608 | 11.67° C | 78% | 1019.6 hPa | - | - | - | - |
| 1787888730 | 11.67° C | 78% | 1019.6 hPa | - | - | - | - |
| 1787885130 | 11.67° C | 72% | 1019.5 hPa | - | - | - | - |
| 1787881530 | 12.22° C | 68% | 1019.7 hPa | - | - | - | - |
| 1787877929 | 12.78° C | 65% | 1020.1 hPa | - | - | - | - |
| 1787874329 | 13.33° C | 63% | 1020.5 hPa | - | - | - | - |
| 1787870729 | 13.33° C | 60% | 1020.5 hPa | - | - | - | - |
| 1787867170 | 13.89° C | 59% | 1020.7 hPa | - | - | - | - |
| 1787867129 | 13.89° C | 59% | 1020.7 hPa | - | - | - | - |
| 1787863528 | 14.44° C | 58% | 1020.6 hPa | - | - | - | - |
| 1787859928 | 15° C | 54% | 1020.6 hPa | - | - | - | - |
| 1787856318 | 16.11° C | 50% | 1020.4 hPa | - | - | - | - |
| 1787852718 | 16.67° C | 51% | 1020 hPa | - | - | - | - |
| 1787849118 | 18.33° C | 47% | 1019.8 hPa | - | - | - | - |
| 1787845517 | 19.44° C | 45% | 1019.9 hPa | - | - | - | - |
| 1787841917 | 20° C | 46% | 1019.7 hPa | - | - | - | - |
| 1787838317 | 20.56° C | 44% | 1019.7 hPa | - | - | - | - |
| 1787834717 | 20.56° C | 44% | 1019.8 hPa | - | - | - | - |
| 1787831117 | 21.11° C | 45% | 1019.9 hPa | - | - | - | - |
| 1787827516 | 20.56° C | 47% | 1020.1 hPa | - | - | - | - |
| 1787823916 | 20° C | 48% | 1019.9 hPa | - | - | - | - |
| 1787820316 | 19.44° C | 52% | 1020 hPa | - | - | - | - |
* Rain since midnight (hover to see other rain measurements)
** Current wind speed in m/s (hover to see current wind gust speed)